createdAt,value
2018-01-05T00:00:46.684Z,987.37
2018-01-05T00:01:46.665Z,987.34
2018-01-05T00:02:46.643Z,987.30
2018-01-05T00:03:46.623Z,987.41
2018-01-05T00:04:46.609Z,987.35
2018-01-05T00:05:46.588Z,987.39
2018-01-05T00:06:46.569Z,987.24
2018-01-05T00:07:46.538Z,987.32
2018-01-05T00:08:46.518Z,987.38
2018-01-05T00:09:46.497Z,987.32
2018-01-05T00:10:46.473Z,987.33
2018-01-05T00:11:46.454Z,987.19
2018-01-05T00:12:46.449Z,987.32
2018-01-05T00:13:46.414Z,987.37
2018-01-05T00:14:46.399Z,987.29
2018-01-05T00:15:46.379Z,987.17
2018-01-05T00:16:46.350Z,987.28
2018-01-05T00:17:46.327Z,987.24
2018-01-05T00:18:46.390Z,987.24
2018-01-05T00:19:46.300Z,987.24
2018-01-05T00:20:46.272Z,987.14
2018-01-05T00:21:46.305Z,987.30
2018-01-05T00:22:46.222Z,987.27
2018-01-05T00:23:46.209Z,987.23
2018-01-05T00:24:46.190Z,987.25
2018-01-05T00:25:46.162Z,987.36
2018-01-05T00:26:46.137Z,987.47
2018-01-05T00:27:46.117Z,987.56
2018-01-05T00:28:46.097Z,987.58
2018-01-05T00:29:46.077Z,987.64
2018-01-05T00:30:46.052Z,987.53
2018-01-05T00:31:46.030Z,987.63
2018-01-05T00:32:46.016Z,987.58
2018-01-05T00:33:45.995Z,987.57
2018-01-05T00:34:45.971Z,987.59
2018-01-05T00:35:45.956Z,987.68
2018-01-05T00:36:45.926Z,987.71
2018-01-05T00:37:45.906Z,987.79
2018-01-05T00:38:45.904Z,987.77
2018-01-05T00:39:45.865Z,987.78
2018-01-05T00:40:46.027Z,987.70
2018-01-05T00:41:45.820Z,987.85
2018-01-05T00:42:45.797Z,987.91
2018-01-05T00:43:45.839Z,987.95
2018-01-05T00:44:45.753Z,987.96
2018-01-05T00:45:45.733Z,987.79
2018-01-05T00:46:45.717Z,987.89
2018-01-05T00:47:45.701Z,988.01
2018-01-05T00:48:45.680Z,987.97
2018-01-05T00:49:45.648Z,987.92
2018-01-05T00:50:45.626Z,987.90
2018-01-05T00:51:45.606Z,987.87
2018-01-05T00:52:45.586Z,987.87
2018-01-05T00:53:45.565Z,987.96
2018-01-05T00:54:45.548Z,987.78
2018-01-05T00:55:45.524Z,987.96
2018-01-05T00:56:45.502Z,988.04
2018-01-05T00:57:45.488Z,987.94
2018-01-05T00:58:45.457Z,987.98
2018-01-05T00:59:45.436Z,987.98
2018-01-05T01:00:45.414Z,988.00
2018-01-05T01:01:45.393Z,988.05
2018-01-05T01:02:45.370Z,988.03
2018-01-05T01:03:45.352Z,988.01
2018-01-05T01:04:45.330Z,988.00
2018-01-05T01:05:45.313Z,987.95
2018-01-05T01:06:45.290Z,987.98
2018-01-05T01:07:45.266Z,988.01
2018-01-05T01:08:45.245Z,988.10
2018-01-05T01:09:45.225Z,988.09
2018-01-05T01:10:45.214Z,988.07
2018-01-05T01:11:45.182Z,987.89
2018-01-05T01:12:45.171Z,987.88
2018-01-05T01:13:45.248Z,987.97
2018-01-05T01:14:45.120Z,987.86
2018-01-05T01:15:45.100Z,987.96
2018-01-05T01:16:45.084Z,987.91
2018-01-05T01:17:45.061Z,987.99
2018-01-05T01:18:45.034Z,988.10
2018-01-05T01:19:45.016Z,988.12
2018-01-05T01:20:44.992Z,988.01
2018-01-05T01:21:44.972Z,987.87
2018-01-05T01:22:44.953Z,987.92
2018-01-05T01:23:44.930Z,987.87
2018-01-05T01:24:44.933Z,988.05
2018-01-05T01:25:44.887Z,988.03
2018-01-05T01:26:44.873Z,988.12
2018-01-05T01:27:44.845Z,988.10
2018-01-05T01:28:44.824Z,988.10
2018-01-05T01:29:44.803Z,987.99
2018-01-05T01:30:44.782Z,987.88
2018-01-05T01:31:44.762Z,987.92
2018-01-05T01:32:44.792Z,988.04
2018-01-05T01:33:44.726Z,988.02
2018-01-05T01:34:44.700Z,988.17
2018-01-05T01:35:44.737Z,988.08
2018-01-05T01:36:44.657Z,988.23
2018-01-05T01:37:44.646Z,988.25
2018-01-05T01:38:44.612Z,988.25
2018-01-05T01:39:44.591Z,988.24
2018-01-05T01:40:44.568Z,988.23
2018-01-05T01:41:44.548Z,988.15
2018-01-05T01:42:44.528Z,988.13
2018-01-05T01:43:44.507Z,988.09
2018-01-05T01:44:44.491Z,988.18
2018-01-05T01:45:44.474Z,988.10
2018-01-05T01:46:44.444Z,988.15
2018-01-05T01:47:44.425Z,988.05
2018-01-05T01:48:44.405Z,988.12
2018-01-05T01:49:44.379Z,988.16
2018-01-05T01:50:44.357Z,988.05
2018-01-05T01:51:44.339Z,988.08
2018-01-05T01:52:44.316Z,988.09
2018-01-05T01:53:44.299Z,987.91
2018-01-05T01:54:44.274Z,987.91
2018-01-05T01:55:44.253Z,988.05
2018-01-05T01:56:44.230Z,987.98
2018-01-05T01:57:44.211Z,987.94
2018-01-05T01:58:44.189Z,987.90
2018-01-05T01:59:44.168Z,987.89
2018-01-05T02:00:44.148Z,987.92
2018-01-05T02:01:44.125Z,988.01
2018-01-05T02:02:44.104Z,987.93
2018-01-05T02:03:44.083Z,988.03
2018-01-05T02:04:44.063Z,987.93
2018-01-05T02:05:44.057Z,987.86
2018-01-05T02:06:44.018Z,987.85
2018-01-05T02:07:44.000Z,987.89
2018-01-05T02:08:44.033Z,988.02
2018-01-05T02:09:43.954Z,987.99
2018-01-05T02:10:43.937Z,988.00
2018-01-05T02:11:43.913Z,987.86
2018-01-05T02:12:43.892Z,987.85
2018-01-05T02:13:43.879Z,987.94
2018-01-05T02:14:43.847Z,987.91
2018-01-05T02:15:43.831Z,987.80
2018-01-05T02:16:43.805Z,987.78
2018-01-05T02:17:43.785Z,987.80
2018-01-05T02:18:43.772Z,987.82
2018-01-05T02:19:43.740Z,987.79
2018-01-05T02:20:43.721Z,987.87
2018-01-05T02:21:43.701Z,987.91
2018-01-05T02:22:43.679Z,987.85
2018-01-05T02:23:43.655Z,987.85
2018-01-05T02:24:43.636Z,987.93
2018-01-05T02:25:43.625Z,987.96
2018-01-05T02:26:43.591Z,987.92
2018-01-05T02:27:43.584Z,987.92
2018-01-05T02:28:43.552Z,987.84
2018-01-05T02:29:43.529Z,987.91
2018-01-05T02:30:43.513Z,987.92
2018-01-05T02:31:43.489Z,987.84
2018-01-05T02:32:43.464Z,987.89
2018-01-05T02:33:43.441Z,987.84
2018-01-05T02:34:43.421Z,987.77
2018-01-05T02:35:43.400Z,987.84
2018-01-05T02:36:43.378Z,987.87
2018-01-05T02:37:43.358Z,987.83
2018-01-05T02:38:43.354Z,987.87
2018-01-05T02:39:43.321Z,987.91
2018-01-05T02:40:43.298Z,987.85
2018-01-05T02:41:43.274Z,987.84
2018-01-05T02:42:43.249Z,987.85
2018-01-05T02:43:43.229Z,987.86
2018-01-05T02:44:43.207Z,987.87
2018-01-05T02:45:43.189Z,987.91
2018-01-05T02:46:43.162Z,987.90
2018-01-05T02:47:43.142Z,987.95
2018-01-05T02:48:43.122Z,987.88
2018-01-05T02:49:43.099Z,987.92
2018-01-05T02:50:43.083Z,987.94
2018-01-05T02:51:43.076Z,987.87
2018-01-05T02:52:43.036Z,987.87
2018-01-05T02:53:43.016Z,987.88
2018-01-05T02:54:42.991Z,987.99
2018-01-05T02:55:42.972Z,987.94
2018-01-05T02:56:42.949Z,987.93
2018-01-05T02:57:42.929Z,987.90
2018-01-05T02:58:42.938Z,987.94
2018-01-05T02:59:42.963Z,987.94
2018-01-05T03:00:42.919Z,987.96
2018-01-05T03:01:42.853Z,987.86
2018-01-05T03:02:42.820Z,987.89
2018-01-05T03:03:42.814Z,987.91
2018-01-05T03:04:42.778Z,987.95
2018-01-05T03:05:42.764Z,987.92
2018-01-05T03:06:42.734Z,987.98
2018-01-05T03:07:42.715Z,987.91
2018-01-05T03:08:42.700Z,987.90
2018-01-05T03:09:42.682Z,987.94
2018-01-05T03:10:42.648Z,987.96
2018-01-05T03:11:42.627Z,987.97
2018-01-05T03:12:42.606Z,987.93
2018-01-05T03:13:42.587Z,987.92
2018-01-05T03:14:42.562Z,987.86
2018-01-05T03:15:42.543Z,987.86
2018-01-05T03:16:42.518Z,987.90
2018-01-05T03:17:42.498Z,987.89
2018-01-05T03:18:42.476Z,987.84
2018-01-05T03:19:42.455Z,987.73
2018-01-05T03:20:42.435Z,987.68
2018-01-05T03:21:42.414Z,987.66
2018-01-05T03:22:42.393Z,987.70
2018-01-05T03:23:42.369Z,987.73
2018-01-05T03:24:42.348Z,987.75
2018-01-05T03:25:42.328Z,987.79
2018-01-05T03:26:42.307Z,987.74
2018-01-05T03:27:42.294Z,987.75
2018-01-05T03:28:42.264Z,987.76
2018-01-05T03:29:42.241Z,987.77
2018-01-05T03:30:42.229Z,987.72
2018-01-05T03:31:42.202Z,987.69
2018-01-05T03:32:42.181Z,987.77
2018-01-05T03:33:42.208Z,987.73
2018-01-05T03:34:42.136Z,987.78
2018-01-05T03:35:42.116Z,987.78
2018-01-05T03:36:42.138Z,987.72
2018-01-05T03:37:42.082Z,987.70
2018-01-05T03:38:42.059Z,987.68
2018-01-05T03:39:42.032Z,987.63
2018-01-05T03:40:42.010Z,987.62
2018-01-05T03:41:41.990Z,987.61
2018-01-05T03:42:41.969Z,987.57
2018-01-05T03:43:41.948Z,987.54
2018-01-05T03:44:41.938Z,987.51
2018-01-05T03:45:41.910Z,987.58
2018-01-05T03:46:41.885Z,987.61
2018-01-05T03:47:41.864Z,987.60
2018-01-05T03:48:41.841Z,987.56
2018-01-05T03:49:41.821Z,987.65
2018-01-05T03:50:41.797Z,987.70
2018-01-05T03:51:41.782Z,987.60
2018-01-05T03:52:41.758Z,987.62
2018-01-05T03:53:41.739Z,987.64
2018-01-05T03:54:41.718Z,987.57
2018-01-05T03:55:41.695Z,987.56
2018-01-05T03:56:41.679Z,987.58
2018-01-05T03:57:41.674Z,987.52
2018-01-05T03:58:41.757Z,987.51
2018-01-05T03:59:41.610Z,987.55
2018-01-05T04:00:41.592Z,987.55
2018-01-05T04:01:41.580Z,987.52
2018-01-05T04:02:41.550Z,987.54
2018-01-05T04:03:41.529Z,987.56
2018-01-05T04:04:41.511Z,987.48
2018-01-05T04:05:41.490Z,987.56
2018-01-05T04:06:41.465Z,987.55
2018-01-05T04:07:41.446Z,987.53
2018-01-05T04:08:41.428Z,987.51
2018-01-05T04:09:41.414Z,987.43
2018-01-05T04:10:41.388Z,987.44
2018-01-05T04:11:41.361Z,987.44
2018-01-05T04:12:41.393Z,987.51
2018-01-05T04:13:41.372Z,987.46
2018-01-05T04:14:41.299Z,987.46
2018-01-05T04:15:41.277Z,987.49
2018-01-05T04:16:41.258Z,987.51
2018-01-05T04:17:41.237Z,987.31
2018-01-05T04:18:41.215Z,987.54
2018-01-05T04:19:41.195Z,987.53
2018-01-05T04:20:41.176Z,987.53
2018-01-05T04:21:41.153Z,987.47
2018-01-05T04:22:41.134Z,987.41
2018-01-05T04:23:41.108Z,987.49
2018-01-05T04:24:41.097Z,987.45
2018-01-05T04:25:41.075Z,987.43
2018-01-05T04:26:41.048Z,987.39
2018-01-05T04:27:41.025Z,987.45
2018-01-05T04:28:41.021Z,987.42
2018-01-05T04:29:40.984Z,987.42
2018-01-05T04:30:40.964Z,987.40
2018-01-05T04:31:40.965Z,987.48
2018-01-05T04:32:40.923Z,987.46
2018-01-05T04:33:40.930Z,987.50
2018-01-05T04:34:40.927Z,987.46
2018-01-05T04:35:40.858Z,987.51
2018-01-05T04:36:40.836Z,987.49
2018-01-05T04:37:40.815Z,987.52
2018-01-05T04:38:40.794Z,987.56
2018-01-05T04:39:40.774Z,987.57
2018-01-05T04:40:40.751Z,987.55
2018-01-05T04:41:40.732Z,987.53
2018-01-05T04:42:40.712Z,987.42
2018-01-05T04:43:40.692Z,987.52
2018-01-05T04:44:40.672Z,987.47
2018-01-05T04:45:40.651Z,987.52
2018-01-05T04:46:40.626Z,987.45
2018-01-05T04:47:40.605Z,987.49
2018-01-05T04:48:40.586Z,987.52
2018-01-05T04:49:40.563Z,987.51
2018-01-05T04:50:40.544Z,987.53
2018-01-05T04:51:40.520Z,987.45
2018-01-05T04:52:40.508Z,987.54
2018-01-05T04:53:40.480Z,987.52
2018-01-05T04:54:40.460Z,987.54
2018-01-05T04:55:40.465Z,987.51
2018-01-05T04:56:40.419Z,987.49
2018-01-05T04:57:40.400Z,987.56
2018-01-05T04:58:40.374Z,987.47
2018-01-05T04:59:40.354Z,987.53
2018-01-05T05:00:40.334Z,987.45
2018-01-05T05:01:40.417Z,987.56
2018-01-05T05:02:40.299Z,987.49
2018-01-05T05:03:40.271Z,987.52
2018-01-05T05:04:40.339Z,987.46
2018-01-05T05:05:40.230Z,987.43
2018-01-05T05:06:40.212Z,987.42
2018-01-05T05:07:40.191Z,987.46
2018-01-05T05:08:40.168Z,987.40
2018-01-05T05:09:40.147Z,987.42
2018-01-05T05:10:40.127Z,987.45
2018-01-05T05:11:40.107Z,987.42
2018-01-05T05:12:40.087Z,987.45
2018-01-05T05:13:40.068Z,987.48
2018-01-05T05:14:40.052Z,987.47
2018-01-05T05:15:40.025Z,987.47
2018-01-05T05:16:40.005Z,987.45
2018-01-05T05:17:39.981Z,987.38
2018-01-05T05:18:39.961Z,987.38
2018-01-05T05:19:39.942Z,987.32
2018-01-05T05:20:39.922Z,987.42
2018-01-05T05:21:39.898Z,987.42
2018-01-05T05:22:39.898Z,987.37
2018-01-05T05:23:39.994Z,987.37
2018-01-05T05:24:39.836Z,987.38
2018-01-05T05:25:39.815Z,987.42
2018-01-05T05:26:39.809Z,987.38
2018-01-05T05:27:39.774Z,987.35
2018-01-05T05:28:39.754Z,987.33
2018-01-05T05:29:39.734Z,987.40
2018-01-05T05:30:39.717Z,987.47
2018-01-05T05:31:39.693Z,987.46
2018-01-05T05:32:39.674Z,987.44
2018-01-05T05:33:39.650Z,987.43
2018-01-05T05:34:39.630Z,987.48
2018-01-05T05:35:39.616Z,987.48
2018-01-05T05:36:39.588Z,987.52
2018-01-05T05:37:39.569Z,987.50
2018-01-05T05:38:39.546Z,987.52
2018-01-05T05:39:39.533Z,987.48
2018-01-05T05:40:39.505Z,987.45
2018-01-05T05:41:39.486Z,987.45
2018-01-05T05:42:39.465Z,987.45
2018-01-05T05:43:39.469Z,987.44
2018-01-05T05:44:39.430Z,987.36
2018-01-05T05:45:39.401Z,987.44
2018-01-05T05:46:39.384Z,987.43
2018-01-05T05:47:39.362Z,987.49
2018-01-05T05:48:39.343Z,987.44
2018-01-05T05:49:39.318Z,987.40
2018-01-05T05:50:39.297Z,987.38
2018-01-05T05:51:39.276Z,987.37
2018-01-05T05:52:39.256Z,987.40
2018-01-05T05:53:39.271Z,987.31
2018-01-05T05:54:39.214Z,987.35
2018-01-05T05:55:39.193Z,987.31
2018-01-05T05:56:39.328Z,987.31
2018-01-05T05:57:39.157Z,987.27
2018-01-05T05:58:39.131Z,987.32
2018-01-05T05:59:39.113Z,987.31
2018-01-05T06:00:39.090Z,987.31
2018-01-05T06:01:39.078Z,987.26
2018-01-05T06:02:39.060Z,987.30
2018-01-05T06:03:39.030Z,987.30
2018-01-05T06:04:39.010Z,987.23
2018-01-05T06:05:38.988Z,987.21
2018-01-05T06:06:38.971Z,987.26
2018-01-05T06:07:38.949Z,987.34
2018-01-05T06:08:38.924Z,987.29
2018-01-05T06:09:38.905Z,987.28
2018-01-05T06:10:38.892Z,987.35
2018-01-05T06:11:38.863Z,987.34
2018-01-05T06:12:38.842Z,987.32
2018-01-05T06:13:38.826Z,987.32
2018-01-05T06:14:38.801Z,987.32
2018-01-05T06:15:38.922Z,987.35
2018-01-05T06:16:38.760Z,987.38
2018-01-05T06:17:38.741Z,987.35
2018-01-05T06:18:38.733Z,987.40
2018-01-05T06:19:38.698Z,987.37
2018-01-05T06:20:38.677Z,987.32
2018-01-05T06:21:38.658Z,987.26
2018-01-05T06:22:38.641Z,987.25
2018-01-05T06:23:38.618Z,987.23
2018-01-05T06:24:38.594Z,987.22
2018-01-05T06:25:38.576Z,987.20
2018-01-05T06:26:38.553Z,987.20
2018-01-05T06:27:38.530Z,987.21
2018-01-05T06:28:38.510Z,987.17
2018-01-05T06:29:38.497Z,987.27
2018-01-05T06:30:38.468Z,987.24
2018-01-05T06:31:38.447Z,987.26
2018-01-05T06:32:38.426Z,987.29
2018-01-05T06:33:38.407Z,987.20
2018-01-05T06:34:38.386Z,987.21
2018-01-05T06:35:38.422Z,987.23
2018-01-05T06:36:38.347Z,987.25
2018-01-05T06:37:38.329Z,987.17
2018-01-05T06:38:38.307Z,987.23
2018-01-05T06:39:38.280Z,987.23
2018-01-05T06:40:38.260Z,987.29
2018-01-05T06:41:38.245Z,987.35
2018-01-05T06:42:38.221Z,987.38
2018-01-05T06:43:38.197Z,987.35
2018-01-05T06:44:38.214Z,987.38
2018-01-05T06:45:38.163Z,987.32
2018-01-05T06:46:38.136Z,987.26
2018-01-05T06:47:38.117Z,987.38
2018-01-05T06:48:38.166Z,987.35
2018-01-05T06:49:38.077Z,987.38
2018-01-05T06:50:38.054Z,987.37
2018-01-05T06:51:38.036Z,987.44
2018-01-05T06:52:38.014Z,987.49
2018-01-05T06:53:37.993Z,987.53
2018-01-05T06:54:37.975Z,987.56
2018-01-05T06:55:37.953Z,987.57
2018-01-05T06:56:37.929Z,987.60
2018-01-05T06:57:37.908Z,987.63
2018-01-05T06:58:37.888Z,987.64
2018-01-05T06:59:37.869Z,987.62
2018-01-05T07:00:37.845Z,987.61
2018-01-05T07:01:37.827Z,987.69
2018-01-05T07:02:37.806Z,987.70
2018-01-05T07:03:37.784Z,987.70
2018-01-05T07:04:37.761Z,987.77
2018-01-05T07:05:37.744Z,987.84
2018-01-05T07:06:37.722Z,987.78
2018-01-05T07:07:37.701Z,987.86
2018-01-05T07:08:37.682Z,987.94
2018-01-05T07:09:37.662Z,987.95
2018-01-05T07:10:37.796Z,988.01
2018-01-05T07:11:37.629Z,987.99
2018-01-05T07:12:37.602Z,988.02
2018-01-05T07:13:37.598Z,988.07
2018-01-05T07:14:37.580Z,988.18
2018-01-05T07:15:37.541Z,988.25
2018-01-05T07:16:37.533Z,988.30
2018-01-05T07:17:37.497Z,988.32
2018-01-05T07:18:37.476Z,988.27
2018-01-05T07:19:37.460Z,988.30
2018-01-05T07:20:37.441Z,988.35
2018-01-05T07:21:37.460Z,988.39
2018-01-05T07:22:37.391Z,988.43
2018-01-05T07:23:37.375Z,988.49
2018-01-05T07:24:37.355Z,988.53
2018-01-05T07:25:37.339Z,988.55
2018-01-05T07:26:37.313Z,988.53
2018-01-05T07:27:37.292Z,988.57
2018-01-05T07:28:37.279Z,988.60
2018-01-05T07:29:37.249Z,988.58
2018-01-05T07:30:37.236Z,988.62
2018-01-05T07:31:37.217Z,988.67
2018-01-05T07:32:37.208Z,988.68
2018-01-05T07:33:37.168Z,988.72
2018-01-05T07:34:37.158Z,988.75
2018-01-05T07:35:37.139Z,988.76
2018-01-05T07:36:37.148Z,988.74
2018-01-05T07:37:37.089Z,988.74
2018-01-05T07:38:37.072Z,988.74
2018-01-05T07:39:37.053Z,988.70
2018-01-05T07:40:37.187Z,988.60
2018-01-05T07:41:37.011Z,988.68
2018-01-05T07:42:36.986Z,988.69
2018-01-05T07:43:37.034Z,988.62
2018-01-05T07:44:36.939Z,988.75
2018-01-05T07:45:36.922Z,988.81
2018-01-05T07:46:36.899Z,988.81
2018-01-05T07:47:36.878Z,988.90
2018-01-05T07:48:36.859Z,988.97
2018-01-05T07:49:36.838Z,989.00
2018-01-05T07:50:36.816Z,989.03
2018-01-05T07:51:36.797Z,989.05
2018-01-05T07:52:36.775Z,989.10
2018-01-05T07:53:36.756Z,989.12
2018-01-05T07:54:36.737Z,989.16
2018-01-05T07:55:36.714Z,989.17
2018-01-05T07:56:36.696Z,989.15
2018-01-05T07:57:36.675Z,989.14
2018-01-05T07:58:36.662Z,989.19
2018-01-05T07:59:36.638Z,989.18
2018-01-05T08:00:36.615Z,989.22
2018-01-05T08:01:36.594Z,989.27
2018-01-05T08:02:36.676Z,989.24
2018-01-05T08:03:36.560Z,989.24
2018-01-05T08:04:36.534Z,989.34
2018-01-05T08:05:36.564Z,989.43
2018-01-05T08:06:36.487Z,989.45
2018-01-05T08:07:36.474Z,989.45
2018-01-05T08:08:36.445Z,989.53
2018-01-05T08:09:36.434Z,989.59
2018-01-05T08:10:36.411Z,989.56
2018-01-05T08:11:36.384Z,989.58
2018-01-05T08:12:36.366Z,989.60
2018-01-05T08:13:36.446Z,989.63
2018-01-05T08:14:36.329Z,989.73
2018-01-05T08:15:36.304Z,989.73
2018-01-05T08:16:36.284Z,989.73
2018-01-05T08:17:36.263Z,989.71
2018-01-05T08:18:36.242Z,989.75
2018-01-05T08:19:36.217Z,989.82
2018-01-05T08:20:36.198Z,989.90
2018-01-05T08:21:36.174Z,989.89
2018-01-05T08:22:36.155Z,989.91
2018-01-05T08:23:36.134Z,989.89
2018-01-05T08:24:36.117Z,989.89
2018-01-05T08:25:36.097Z,989.86
2018-01-05T08:26:36.084Z,989.83
2018-01-05T08:27:36.066Z,989.84
2018-01-05T08:28:36.031Z,989.91
2018-01-05T08:29:36.018Z,989.95
2018-01-05T08:30:35.991Z,990.01
2018-01-05T08:31:35.971Z,990.02
2018-01-05T08:32:35.977Z,989.96
2018-01-05T08:33:35.928Z,989.98
2018-01-05T08:34:35.912Z,989.97
2018-01-05T08:35:35.932Z,989.98
2018-01-05T08:36:35.862Z,990.02
2018-01-05T08:37:35.843Z,990.04
2018-01-05T08:38:35.823Z,989.99
2018-01-05T08:39:35.815Z,990.01
2018-01-05T08:40:35.787Z,989.96
2018-01-05T08:41:35.758Z,989.99
2018-01-05T08:42:35.744Z,989.97
2018-01-05T08:43:35.729Z,990.09
2018-01-05T08:44:35.699Z,990.12
2018-01-05T08:45:35.675Z,990.11
2018-01-05T08:46:35.653Z,990.13
2018-01-05T08:47:35.632Z,990.11
2018-01-05T08:48:35.613Z,990.11
2018-01-05T08:49:35.591Z,990.11
2018-01-05T08:50:35.570Z,990.17
2018-01-05T08:51:35.550Z,990.19
2018-01-05T08:52:35.548Z,990.22
2018-01-05T08:53:35.520Z,990.23
2018-01-05T08:54:35.529Z,990.18
2018-01-05T08:55:35.467Z,990.20
2018-01-05T08:56:35.458Z,990.26
2018-01-05T08:57:35.438Z,990.22
2018-01-05T08:58:35.407Z,990.30
2018-01-05T08:59:35.388Z,990.27
2018-01-05T09:00:35.366Z,990.20
2018-01-05T09:01:35.348Z,990.26
2018-01-05T09:02:35.345Z,990.27
2018-01-05T09:03:35.308Z,990.22
2018-01-05T09:04:35.306Z,990.32
2018-01-05T09:05:35.315Z,990.37
2018-01-05T09:06:35.247Z,990.39
2018-01-05T09:07:35.226Z,990.33
2018-01-05T09:08:35.208Z,990.33
2018-01-05T09:09:35.185Z,990.31
2018-01-05T09:10:35.167Z,990.30
2018-01-05T09:11:35.150Z,990.33
2018-01-05T09:12:35.124Z,990.37
2018-01-05T09:13:35.103Z,990.39
2018-01-05T09:14:35.078Z,990.44
2018-01-05T09:15:35.069Z,990.48
2018-01-05T09:16:35.048Z,990.48
2018-01-05T09:17:35.024Z,990.46
2018-01-05T09:18:35.006Z,990.42
2018-01-05T09:19:34.982Z,990.41
2018-01-05T09:20:35.000Z,990.41
2018-01-05T09:21:34.947Z,990.38
2018-01-05T09:22:34.924Z,990.40
2018-01-05T09:23:34.899Z,990.39
2018-01-05T09:24:34.895Z,990.39
2018-01-05T09:25:34.871Z,990.44
2018-01-05T09:26:34.845Z,990.39
2018-01-05T09:27:34.855Z,990.41
2018-01-05T09:28:34.807Z,990.43
2018-01-05T09:29:34.784Z,990.48
2018-01-05T09:30:34.764Z,990.54
2018-01-05T09:31:34.748Z,990.58
2018-01-05T09:32:34.732Z,990.64
2018-01-05T09:33:34.715Z,990.68
2018-01-05T09:34:34.682Z,990.68
2018-01-05T09:35:34.670Z,990.64
2018-01-05T09:36:34.658Z,990.61
2018-01-05T09:37:34.622Z,990.58
2018-01-05T09:38:34.602Z,990.57
2018-01-05T09:39:34.584Z,990.62
2018-01-05T09:40:34.567Z,990.66
2018-01-05T09:41:34.544Z,990.70
2018-01-05T09:42:34.524Z,990.73
2018-01-05T09:43:34.504Z,990.67
2018-01-05T09:44:34.484Z,990.62
2018-01-05T09:45:34.465Z,990.65
2018-01-05T09:46:34.446Z,990.66
2018-01-05T09:47:34.425Z,990.67
2018-01-05T09:48:34.404Z,990.64
2018-01-05T09:49:34.390Z,990.68
2018-01-05T09:50:34.364Z,990.67
2018-01-05T09:51:34.345Z,990.68
2018-01-05T09:52:34.331Z,990.69
2018-01-05T09:53:34.327Z,990.65
2018-01-05T09:54:34.373Z,990.63
2018-01-05T09:55:34.268Z,990.62
2018-01-05T09:56:34.260Z,990.60
2018-01-05T09:57:34.245Z,990.57
2018-01-05T09:58:34.211Z,990.62
2018-01-05T09:59:34.190Z,990.63
2018-01-05T10:00:34.174Z,990.73
2018-01-05T10:01:34.151Z,990.74
2018-01-05T10:02:34.130Z,990.70
2018-01-05T10:03:34.120Z,990.74
2018-01-05T10:04:34.092Z,990.77
2018-01-05T10:05:34.071Z,990.84
2018-01-05T10:06:34.054Z,990.78
2018-01-05T10:07:34.031Z,990.80
2018-01-05T10:08:34.011Z,990.76
2018-01-05T10:09:33.998Z,990.72
2018-01-05T10:10:33.984Z,990.68
2018-01-05T10:11:33.955Z,990.73
2018-01-05T10:12:33.932Z,990.66
2018-01-05T10:13:33.913Z,990.68
2018-01-05T10:14:33.903Z,990.66
2018-01-05T10:15:33.872Z,990.71
2018-01-05T10:16:33.995Z,990.65
2018-01-05T10:17:33.837Z,990.69
2018-01-05T10:18:33.814Z,990.64
2018-01-05T10:19:33.804Z,990.70
2018-01-05T10:20:33.776Z,990.71
2018-01-05T10:21:33.755Z,990.72
2018-01-05T10:22:33.735Z,990.77
2018-01-05T10:23:33.716Z,990.67
2018-01-05T10:24:33.698Z,990.78
2018-01-05T10:25:33.685Z,990.76
2018-01-05T10:26:33.661Z,990.80
2018-01-05T10:27:33.638Z,990.76
2018-01-05T10:28:33.618Z,990.89
2018-01-05T10:29:33.600Z,990.90
2018-01-05T10:30:33.579Z,990.90
2018-01-05T10:31:33.564Z,990.87
2018-01-05T10:32:33.544Z,990.88
2018-01-05T10:33:33.527Z,990.84
2018-01-05T10:34:33.503Z,990.83
2018-01-05T10:35:33.486Z,990.84
2018-01-05T10:36:33.473Z,990.82
2018-01-05T10:37:33.444Z,990.85
2018-01-05T10:38:33.424Z,990.87
2018-01-05T10:39:33.405Z,990.87
2018-01-05T10:40:33.386Z,990.88
2018-01-05T10:41:33.369Z,990.84
2018-01-05T10:42:33.372Z,990.83
2018-01-05T10:43:33.325Z,990.85
2018-01-05T10:44:33.310Z,990.86
2018-01-05T10:45:33.292Z,990.96
2018-01-05T10:46:33.317Z,990.90
2018-01-05T10:47:33.253Z,990.91
2018-01-05T10:48:33.233Z,990.91
2018-01-05T10:49:33.244Z,990.98
2018-01-05T10:50:33.192Z,991.03
2018-01-05T10:51:33.177Z,990.96
2018-01-05T10:52:33.151Z,990.95
2018-01-05T10:53:33.134Z,990.98
2018-01-05T10:54:33.114Z,990.98
2018-01-05T10:55:33.100Z,990.99
2018-01-05T10:56:33.076Z,991.02
2018-01-05T10:57:33.063Z,991.02
2018-01-05T10:58:33.048Z,991.00
2018-01-05T10:59:33.019Z,991.00
2018-01-05T11:00:33.002Z,991.00
2018-01-05T11:01:32.990Z,991.04
2018-01-05T11:02:32.961Z,991.08
2018-01-05T11:03:32.976Z,991.08
2018-01-05T11:04:32.925Z,991.05
2018-01-05T11:05:32.925Z,991.10
2018-01-05T11:06:32.886Z,991.07
2018-01-05T11:07:32.869Z,991.12
2018-01-05T11:08:32.864Z,991.11
2018-01-05T11:09:32.832Z,991.03
2018-01-05T11:10:32.821Z,991.04
2018-01-05T11:11:32.846Z,991.03
2018-01-05T11:12:32.781Z,991.03
2018-01-05T11:13:32.755Z,991.04
2018-01-05T11:14:32.735Z,991.06
2018-01-05T11:15:32.727Z,991.02
2018-01-05T11:16:32.710Z,991.06
2018-01-05T11:17:32.680Z,991.05
2018-01-05T11:18:32.666Z,991.03
2018-01-05T11:19:32.640Z,991.01
2018-01-05T11:20:32.631Z,991.02
2018-01-05T11:21:32.604Z,990.97
2018-01-05T11:22:32.597Z,990.95
2018-01-05T11:23:32.586Z,990.90
2018-01-05T11:24:32.547Z,990.90
2018-01-05T11:25:32.531Z,990.89
2018-01-05T11:26:32.514Z,990.92
2018-01-05T11:27:32.496Z,990.90
2018-01-05T11:28:32.476Z,990.92
2018-01-05T11:29:32.466Z,990.95
2018-01-05T11:30:32.437Z,991.03
2018-01-05T11:31:32.436Z,991.05
2018-01-05T11:32:32.399Z,991.09
2018-01-05T11:33:32.381Z,991.08
2018-01-05T11:34:32.363Z,991.12
2018-01-05T11:35:32.384Z,991.08
2018-01-05T11:36:32.327Z,991.08
2018-01-05T11:37:32.314Z,991.07
2018-01-05T11:38:32.341Z,991.13
2018-01-05T11:39:32.284Z,991.08
2018-01-05T11:40:32.250Z,991.10
2018-01-05T11:41:32.235Z,991.18
2018-01-05T11:42:32.221Z,991.18
2018-01-05T11:43:32.197Z,991.15
2018-01-05T11:44:32.179Z,991.14
2018-01-05T11:45:32.159Z,991.20
2018-01-05T11:46:32.153Z,991.15
2018-01-05T11:47:32.127Z,991.10
2018-01-05T11:48:32.119Z,991.09
2018-01-05T11:49:32.085Z,991.13
2018-01-05T11:50:32.134Z,991.13
2018-01-05T11:51:32.070Z,991.15
2018-01-05T11:52:32.034Z,991.13
2018-01-05T11:53:32.010Z,991.16
2018-01-05T11:54:31.989Z,991.13
2018-01-05T11:55:31.977Z,991.09
2018-01-05T11:56:31.953Z,991.08
2018-01-05T11:57:31.958Z,991.07
2018-01-05T11:58:31.920Z,991.08
2018-01-05T11:59:31.897Z,991.07
2018-01-05T12:00:31.935Z,991.11
2018-01-05T12:01:31.875Z,991.11
2018-01-05T12:02:31.843Z,991.20
2018-01-05T12:03:31.826Z,991.21
2018-01-05T12:04:31.818Z,991.14
2018-01-05T12:05:31.788Z,991.14
2018-01-05T12:06:31.773Z,991.16
2018-01-05T12:07:31.761Z,991.09
2018-01-05T12:08:31.732Z,991.18
2018-01-05T12:09:31.721Z,991.08
2018-01-05T12:10:31.695Z,991.06
2018-01-05T12:11:31.681Z,991.09
2018-01-05T12:12:31.662Z,991.06
2018-01-05T12:13:31.646Z,991.12
2018-01-05T12:14:31.621Z,991.10
2018-01-05T12:15:31.608Z,991.12
2018-01-05T12:16:31.589Z,991.10
2018-01-05T12:17:31.565Z,991.18
2018-01-05T12:18:31.560Z,991.19
2018-01-05T12:19:31.533Z,991.20
2018-01-05T12:20:31.511Z,991.17
2018-01-05T12:21:31.493Z,991.14
2018-01-05T12:22:31.472Z,991.15
2018-01-05T12:23:31.453Z,991.14
2018-01-05T12:24:31.443Z,991.10
2018-01-05T12:25:31.419Z,991.13
2018-01-05T12:26:31.401Z,991.10
2018-01-05T12:27:31.387Z,991.06
2018-01-05T12:28:31.361Z,991.01